Time;durP1;ratioP1;P1;durP2;ratioP2;P2;SDS_P1;SDS_P2;PMS_P1;PMS_P2;Temp;Humidity;BMP_temperature;BMP_pressure;BME280_temperature;BME280_humidity;BME280_pressure;Samples;Min_cycle;Max_cycle;Signal;HPM_P1;HPM_P2
2022/04/18 00:01:59;;;;;;;16.53;10.83;;;6.60;99.90;;;;;;5064878;28;20051;-32
2022/04/18 00:04:24;;;;;;;18.17;10.10;;;6.50;99.90;;;;;;5047325;28;20049;-34
2022/04/18 00:06:50;;;;;;;17.67;10.60;;;6.50;99.90;;;;;;5036194;28;20045;-34
2022/04/18 00:09:16;;;;;;;14.70;10.77;;;6.50;99.90;;;;;;5045897;28;20044;-34
2022/04/18 00:11:42;;;;;;;16.07;10.53;;;6.40;99.90;;;;;;5047254;28;20094;-34
2022/04/18 00:14:09;;;;;;;17.03;11.50;;;6.40;99.90;;;;;;5046281;28;20041;-32
2022/04/18 00:16:34;;;;;;;15.73;10.87;;;6.30;99.90;;;;;;5039962;28;20048;-34
2022/04/18 00:19:00;;;;;;;15.87;11.20;;;6.30;99.90;;;;;;5064153;28;20044;-33
2022/04/18 00:21:26;;;;;;;19.50;11.03;;;6.30;99.90;;;;;;5066095;28;20052;-30
2022/04/18 00:23:51;;;;;;;15.67;10.63;;;6.20;99.90;;;;;;5066065;28;20535;-35
2022/04/18 00:26:17;;;;;;;17.10;11.17;;;6.20;99.90;;;;;;5056335;28;20036;-33
2022/04/18 00:28:43;;;;;;;16.77;11.77;;;6.20;99.90;;;;;;5061222;28;20091;-34
2022/04/18 00:31:08;;;;;;;17.53;11.63;;;6.20;99.90;;;;;;5067100;28;20081;-32
2022/04/18 00:33:34;;;;;;;18.63;11.47;;;6.20;99.90;;;;;;5066361;28;20048;-32
2022/04/18 00:36:00;;;;;;;16.77;11.30;;;6.10;99.90;;;;;;5066303;28;20048;-32
2022/04/18 00:38:28;;;;;;;15.93;11.07;;;6.00;99.90;;;;;;5047126;28;20060;-32
2022/04/18 00:40:54;;;;;;;16.37;11.37;;;6.00;99.90;;;;;;5046490;28;20119;-33
2022/04/18 00:43:46;;;;;;;18.53;11.67;;;6.00;99.90;;;;;;5063198;28;20131;-33
2022/04/18 00:46:14;;;;;;;17.03;10.93;;;6.00;99.90;;;;;;5058822;28;20035;-34
2022/04/18 00:48:40;;;;;;;18.30;11.80;;;5.90;99.90;;;;;;5059539;28;20048;-32
2022/04/18 00:51:09;;;;;;;16.93;11.73;;;5.90;99.90;;;;;;5065751;28;20060;-31
2022/04/18 00:53:37;;;;;;;14.13;10.90;;;5.90;99.90;;;;;;5065834;28;20187;-31
2022/04/18 00:56:04;;;;;;;16.63;11.07;;;5.80;99.90;;;;;;5066353;28;20040;-34
2022/04/18 00:58:31;;;;;;;16.60;11.17;;;5.80;99.90;;;;;;5051198;28;20160;-35
2022/04/18 01:00:56;;;;;;;16.00;11.27;;;5.70;99.90;;;;;;5064348;28;20400;-33
2022/04/18 01:03:22;;;;;;;17.50;12.20;;;5.70;99.90;;;;;;5064201;28;20045;-31
2022/04/18 01:05:48;;;;;;;17.60;11.53;;;5.70;99.90;;;;;;5057734;28;20187;-31
2022/04/18 01:08:14;;;;;;;17.63;11.93;;;5.70;99.90;;;;;;5030261;28;20060;-30
2022/04/18 01:10:40;;;;;;;17.17;12.07;;;5.70;99.90;;;;;;5063152;28;20407;-33
2022/04/18 01:13:06;;;;;;;16.67;11.30;;;5.60;99.90;;;;;;5065906;28;20079;-33
2022/04/18 01:15:32;;;;;;;17.77;11.23;;;5.60;99.90;;;;;;5065612;28;20148;-32
2022/04/18 01:17:58;;;;;;;18.37;11.87;;;5.60;99.90;;;;;;5050218;28;20516;-33
2022/04/18 01:20:34;;;;;;;20.00;11.47;;;5.50;99.90;;;;;;5065529;28;20048;-34
2022/04/18 01:23:01;;;;;;;17.67;12.30;;;5.50;99.90;;;;;;5065314;28;20071;-31
2022/04/18 01:30:57;;;;;;;18.67;11.57;;;5.40;99.90;;;;;;5065621;28;20052;-30
2022/04/18 01:33:23;;;;;;;16.73;11.80;;;5.40;99.90;;;;;;5065162;28;20650;-33
2022/04/18 01:35:49;;;;;;;20.07;12.33;;;5.40;99.90;;;;;;5057611;28;20079;-32
2022/04/18 01:38:14;;;;;;;17.57;11.30;;;5.30;99.90;;;;;;5032964;28;20245;-32
2022/04/18 01:40:40;;;;;;;18.80;12.13;;;5.30;99.90;;;;;;5043998;28;20048;-33
2022/04/18 01:43:07;;;;;;;16.10;11.27;;;5.20;99.90;;;;;;5044653;28;20049;-32
2022/04/18 01:45:34;;;;;;;18.47;12.00;;;5.30;99.90;;;;;;5043795;28;20047;-33
2022/04/18 01:48:00;;;;;;;19.93;12.00;;;5.30;99.90;;;;;;5046696;28;20093;-32
2022/04/18 01:50:26;;;;;;;18.63;11.57;;;5.20;99.90;;;;;;5052479;28;20440;-33
2022/04/18 01:52:52;;;;;;;18.80;12.07;;;5.20;99.90;;;;;;5044789;28;20136;-30
2022/04/18 01:55:17;;;;;;;19.87;12.20;;;5.20;99.90;;;;;;5055547;28;20040;-33
2022/04/18 01:57:43;;;;;;;19.30;12.13;;;5.20;99.90;;;;;;5049316;28;20128;-33
2022/04/18 02:00:09;;;;;;;18.67;12.20;;;5.20;99.90;;;;;;5065144;28;20036;-33
2022/04/18 02:02:35;;;;;;;16.33;11.77;;;5.10;99.90;;;;;;5064443;28;20475;-30
2022/04/18 02:05:01;;;;;;;18.97;12.03;;;5.10;99.90;;;;;;5063318;28;20054;-34
2022/04/18 02:07:28;;;;;;;19.43;12.23;;;5.10;99.90;;;;;;5028859;28;20107;-31
2022/04/18 02:09:55;;;;;;;21.70;12.63;;;5.10;99.90;;;;;;5044976;28;20752;-32
2022/04/18 02:12:20;;;;;;;20.40;12.10;;;5.20;99.90;;;;;;5061463;28;20044;-31
2022/04/18 02:14:47;;;;;;;19.50;12.03;;;5.00;99.90;;;;;;5065083;28;20050;-31
2022/04/18 02:17:12;;;;;;;17.63;11.20;;;5.00;99.90;;;;;;5048686;28;20503;-32
2022/04/18 02:19:38;;;;;;;20.47;12.17;;;5.00;99.90;;;;;;5064539;28;20040;-33
2022/04/18 02:22:05;;;;;;;18.27;12.40;;;4.90;99.90;;;;;;5063760;28;20051;-33
2022/04/18 02:24:31;;;;;;;17.83;12.07;;;4.90;99.90;;;;;;5064993;28;20048;-33
2022/04/18 02:26:57;;;;;;;19.63;12.07;;;4.90;99.90;;;;;;5049546;28;20123;-30
2022/04/18 02:29:23;;;;;;;17.67;12.10;;;4.90;99.90;;;;;;5063907;28;20048;-32
2022/04/18 02:34:33;;;;;;;17.23;12.10;;;4.80;99.90;;;;;;5064067;28;20205;-33
2022/04/18 02:36:59;;;;;;;16.53;12.17;;;4.80;99.90;;;;;;5049508;28;20131;-33
2022/04/18 02:39:25;;;;;;;21.47;11.97;;;4.80;99.90;;;;;;5051585;28;20832;-35
2022/04/18 02:41:50;;;;;;;20.53;12.63;;;4.70;99.90;;;;;;5043896;28;20055;-35
2022/04/18 02:44:16;;;;;;;22.50;12.53;;;4.70;99.90;;;;;;5043699;28;20055;-34
2022/04/18 02:46:41;;;;;;;18.53;12.03;;;4.70;99.90;;;;;;5012843;28;20056;-33
2022/04/18 02:49:07;;;;;;;17.73;12.10;;;4.70;99.90;;;;;;5048554;28;20036;-32
2022/04/18 02:51:33;;;;;;;21.93;12.40;;;4.70;99.90;;;;;;5063793;28;20056;-32
2022/04/18 02:53:59;;;;;;;20.43;12.90;;;4.70;99.90;;;;;;5063692;28;20048;-35
2022/04/18 02:56:25;;;;;;;19.60;12.93;;;4.70;99.90;;;;;;5052145;28;20075;-34
2022/04/18 02:58:50;;;;;;;19.90;13.30;;;4.70;99.90;;;;;;5060800;28;20055;-31
2022/04/18 03:01:16;;;;;;;20.57;12.90;;;4.60;99.90;;;;;;5063957;28;20075;-31
2022/04/18 03:03:42;;;;;;;18.97;12.83;;;4.60;99.90;;;;;;5063552;28;20094;-35
2022/04/18 03:06:08;;;;;;;20.47;13.23;;;4.60;99.90;;;;;;5048917;28;20378;-36
2022/04/18 03:08:33;;;;;;;18.83;13.43;;;4.60;99.90;;;;;;5032776;28;20056;-34
2022/04/18 03:11:02;;;;;;;20.13;13.70;;;4.50;99.90;;;;;;5042906;28;20049;-34
2022/04/18 03:13:29;;;;;;;17.53;12.23;;;4.50;99.90;;;;;;5043329;28;20052;-32
2022/04/18 03:15:54;;;;;;;19.57;12.90;;;4.60;99.90;;;;;;5044378;28;20063;-34
2022/04/18 03:18:20;;;;;;;18.93;12.37;;;4.50;99.90;;;;;;5027863;28;20045;-33
2022/04/18 03:20:46;;;;;;;18.53;12.60;;;4.50;99.90;;;;;;5044336;28;20041;-31
2022/04/18 03:23:12;;;;;;;20.43;12.37;;;4.50;99.90;;;;;;5041651;28;20056;-34
2022/04/18 03:25:38;;;;;;;20.77;13.23;;;4.40;99.90;;;;;;5042464;28;20041;-32
2022/04/18 03:28:04;;;;;;;18.33;12.33;;;4.40;99.90;;;;;;5030503;28;20045;-32
2022/04/18 03:30:29;;;;;;;17.97;12.10;;;4.30;99.90;;;;;;5048227;28;20037;-31
2022/04/18 03:32:55;;;;;;;17.93;12.53;;;4.30;99.90;;;;;;5059719;28;20055;-31
2022/04/18 03:35:21;;;;;;;19.50;12.40;;;4.30;99.90;;;;;;5068393;28;20151;-31
2022/04/18 03:40:30;;;;;;;18.33;12.67;;;4.20;99.90;;;;;;5066542;28;20079;-33
2022/04/18 03:42:56;;;;;;;19.90;12.73;;;4.20;99.90;;;;;;5065500;28;21026;-31
2022/04/18 03:45:22;;;;;;;18.87;12.27;;;4.20;99.90;;;;;;5068101;28;20483;-31
2022/04/18 03:47:47;;;;;;;20.23;12.77;;;4.10;99.90;;;;;;5051130;28;20049;-33
2022/04/18 03:50:14;;;;;;;17.57;12.10;;;4.10;99.90;;;;;;5067746;28;20055;-32
2022/04/18 03:52:40;;;;;;;18.70;12.33;;;4.10;99.90;;;;;;5066418;28;20072;-34
2022/04/18 03:55:06;;;;;;;19.90;12.67;;;4.10;99.90;;;;;;5067654;28;20518;-32
2022/04/18 03:57:32;;;;;;;20.87;13.27;;;4.00;99.90;;;;;;5051426;28;20245;-33
2022/04/18 03:59:58;;;;;;;18.67;13.20;;;4.00;99.90;;;;;;5063264;28;20107;-31
2022/04/18 04:02:23;;;;;;;20.27;12.83;;;4.00;99.90;;;;;;5044982;28;20094;-34
2022/04/18 04:04:49;;;;;;;18.97;12.63;;;4.00;99.90;;;;;;5062056;28;20517;-33
2022/04/18 04:07:15;;;;;;;19.70;12.80;;;4.10;99.90;;;;;;5051092;28;20925;-31
2022/04/18 04:09:41;;;;;;;20.60;13.57;;;4.00;99.90;;;;;;5067244;28;20039;-33
2022/04/18 04:12:07;;;;;;;22.27;14.60;;;4.00;99.90;;;;;;5066380;28;20041;-33
2022/04/18 04:14:33;;;;;;;20.87;13.10;;;4.00;99.90;;;;;;5067153;28;20032;-33
2022/04/18 04:16:59;;;;;;;23.13;13.53;;;4.00;99.90;;;;;;5052479;28;20090;-32
2022/04/18 04:19:25;;;;;;;20.20;12.57;;;4.00;99.90;;;;;;5065699;28;20036;-31
2022/04/18 04:21:50;;;;;;;19.60;12.70;;;4.00;99.90;;;;;;5065977;28;20052;-32
2022/04/18 04:24:16;;;;;;;18.97;12.63;;;4.00;99.90;;;;;;5065975;28;20483;-33
2022/04/18 04:26:44;;;;;;;19.13;13.00;;;4.00;99.90;;;;;;5053145;28;20037;-32
2022/04/18 04:29:09;;;;;;;18.07;12.83;;;4.10;99.90;;;;;;5065853;28;20037;-32
2022/04/18 04:31:35;;;;;;;23.17;12.73;;;4.10;99.90;;;;;;5066886;28;20059;-31
2022/04/18 04:34:01;;;;;;;20.73;13.37;;;4.10;99.90;;;;;;5056406;28;20037;-31
2022/04/18 04:36:26;;;;;;;19.57;13.17;;;4.10;99.90;;;;;;5035338;28;20056;-32
2022/04/18 04:38:52;;;;;;;20.77;12.77;;;4.10;99.90;;;;;;5045555;28;20118;-32
2022/04/18 04:41:18;;;;;;;20.37;13.23;;;4.10;99.90;;;;;;5028986;28;20043;-31
2022/04/18 04:43:43;;;;;;;21.67;13.57;;;4.10;99.90;;;;;;5045862;28;20102;-33
2022/04/18 04:46:09;;;;;;;21.20;13.17;;;4.10;99.90;;;;;;5042779;28;20619;-37
2022/04/18 04:48:35;;;;;;;20.47;13.10;;;4.00;99.90;;;;;;5057939;28;20276;-34
2022/04/18 04:51:01;;;;;;;21.03;13.47;;;4.10;99.90;;;;;;5066017;28;20136;-32
2022/04/18 04:53:26;;;;;;;20.83;13.97;;;4.10;99.90;;;;;;5065200;28;20044;-31
2022/04/18 04:55:52;;;;;;;18.03;12.70;;;4.10;99.90;;;;;;5065253;28;20094;-31
2022/04/18 04:58:18;;;;;;;22.50;13.33;;;4.10;99.90;;;;;;5050179;28;20724;-33
2022/04/18 05:00:43;;;;;;;18.43;12.67;;;4.10;99.90;;;;;;5066621;28;20052;-35
2022/04/18 05:03:09;;;;;;;24.03;13.73;;;4.10;99.90;;;;;;5063609;28;20093;-34
2022/04/18 05:05:35;;;;;;;21.97;13.30;;;4.10;99.90;;;;;;5058176;28;20049;-33
2022/04/18 05:08:01;;;;;;;20.97;13.10;;;4.10;99.90;;;;;;5030403;28;20101;-34
2022/04/18 05:10:27;;;;;;;19.10;12.83;;;4.10;99.90;;;;;;5062667;28;20036;-34
2022/04/18 05:12:53;;;;;;;20.00;12.83;;;4.10;99.90;;;;;;5065571;28;20090;-34
2022/04/18 05:15:19;;;;;;;19.07;13.27;;;4.20;99.90;;;;;;5063946;28;20071;-31
2022/04/18 05:17:45;;;;;;;20.37;13.87;;;4.20;99.90;;;;;;5046685;28;20440;-31
2022/04/18 05:20:11;;;;;;;19.97;13.47;;;4.20;99.90;;;;;;5063910;28;20048;-34
2022/04/18 05:22:36;;;;;;;20.00;13.07;;;4.20;99.90;;;;;;5064598;28;20048;-33
2022/04/18 05:25:03;;;;;;;20.53;13.30;;;4.20;99.90;;;;;;5065584;28;20051;-33
2022/04/18 05:27:29;;;;;;;20.50;13.43;;;4.30;99.90;;;;;;5048027;28;20052;-32
2022/04/18 05:29:55;;;;;;;21.80;12.77;;;4.30;99.90;;;;;;5064061;28;20045;-31
2022/04/18 05:32:21;;;;;;;20.53;12.60;;;4.40;99.90;;;;;;5063546;28;20051;-31
2022/04/18 05:34:46;;;;;;;19.37;13.17;;;4.50;99.90;;;;;;5064088;28;20229;-32
2022/04/18 05:37:12;;;;;;;23.33;13.63;;;4.50;99.90;;;;;;5047459;28;20240;-32
2022/04/18 05:39:38;;;;;;;22.93;12.87;;;4.60;99.90;;;;;;5048266;28;20037;-34
2022/04/18 05:42:06;;;;;;;19.73;13.23;;;4.70;99.90;;;;;;5044853;28;20052;-38
2022/04/18 05:44:33;;;;;;;18.33;13.37;;;4.80;99.90;;;;;;5043861;28;20056;-32
2022/04/18 05:46:59;;;;;;;16.07;12.20;;;4.80;99.90;;;;;;5049574;28;20049;-33
2022/04/18 05:49:24;;;;;;;18.73;12.43;;;5.00;99.90;;;;;;5062105;28;20391;-33
2022/04/18 05:51:50;;;;;;;19.43;12.80;;;5.10;99.90;;;;;;5048757;28;20075;-33
2022/04/18 05:54:16;;;;;;;18.43;12.87;;;5.20;99.90;;;;;;5044396;28;20102;-34
2022/04/18 05:56:42;;;;;;;18.87;12.23;;;5.40;99.90;;;;;;5030331;28;20460;-33
2022/04/18 05:59:07;;;;;;;16.80;12.03;;;5.50;99.90;;;;;;5042700;28;20041;-31
2022/04/18 06:01:35;;;;;;;17.23;12.37;;;5.60;99.90;;;;;;5063315;28;20054;-31
2022/04/18 06:04:01;;;;;;;17.43;12.20;;;5.70;99.90;;;;;;5063828;28;20048;-31
2022/04/18 06:06:27;;;;;;;15.63;11.63;;;5.90;99.90;;;;;;5039554;28;20041;-30
2022/04/18 06:08:52;;;;;;;16.50;12.07;;;6.00;99.90;;;;;;5041383;28;20059;-31
2022/04/18 06:11:18;;;;;;;19.70;12.17;;;6.20;99.90;;;;;;5044728;28;20412;-31
2022/04/18 06:13:44;;;;;;;20.13;12.37;;;6.40;99.90;;;;;;5044100;28;20087;-33
2022/04/18 06:16:12;;;;;;;16.80;11.97;;;6.50;99.90;;;;;;5039053;28;20461;-35
2022/04/18 06:18:38;;;;;;;15.70;10.97;;;6.60;99.90;;;;;;5038137;28;20726;-33
2022/04/18 06:21:04;;;;;;;18.97;12.70;;;6.80;99.90;;;;;;5060192;28;20048;-34
2022/04/18 06:23:29;;;;;;;17.83;11.37;;;6.80;99.90;;;;;;5063829;28;20048;-30
2022/04/18 06:25:55;;;;;;;16.83;11.13;;;7.10;99.90;;;;;;5063003;28;20055;-34
2022/04/18 06:28:21;;;;;;;14.27;10.87;;;7.20;99.90;;;;;;5048373;28;20049;-32
2022/04/18 06:30:46;;;;;;;15.83;11.20;;;7.40;99.90;;;;;;5064515;28;20052;-31
2022/04/18 06:33:13;;;;;;;16.60;11.20;;;7.50;99.90;;;;;;5064021;28;20109;-33
2022/04/18 06:35:38;;;;;;;14.63;10.00;;;7.60;99.90;;;;;;5064206;28;20041;-32
2022/04/18 06:38:05;;;;;;;14.13;10.43;;;7.80;99.90;;;;;;5046000;28;20098;-31
2022/04/18 06:40:31;;;;;;;14.03;9.97;;;7.90;99.90;;;;;;5044626;28;20041;-35
2022/04/18 06:42:57;;;;;;;17.07;10.50;;;8.00;99.90;;;;;;5042373;28;20052;-34
2022/04/18 06:45:24;;;;;;;14.63;10.50;;;8.20;99.90;;;;;;5052034;28;20053;-33
2022/04/18 06:47:50;;;;;;;17.37;10.53;;;8.30;99.90;;;;;;5048456;28;20055;-34
2022/04/18 06:50:16;;;;;;;17.23;10.90;;;8.40;99.90;;;;;;5062974;28;20037;-33
2022/04/18 06:52:50;;;;;;;15.43;10.13;;;8.70;99.90;;;;;;5063751;28;20050;-34
2022/04/18 06:55:16;;;;;;;18.90;9.97;;;8.70;99.90;;;;;;5064464;28;20051;-34
2022/04/18 06:57:42;;;;;;;23.47;11.40;;;8.70;99.90;;;;;;5046977;28;20275;-33
2022/04/18 07:00:08;;;;;;;22.90;11.30;;;8.80;99.90;;;;;;5063838;28;20507;-34
2022/04/18 07:02:34;;;;;;;23.20;10.27;;;8.90;99.90;;;;;;5063092;28;20048;-31
2022/04/18 07:05:00;;;;;;;13.40;9.80;;;9.00;99.90;;;;;;5060787;28;20593;-31
2022/04/18 07:07:26;;;;;;;21.47;10.80;;;9.10;99.90;;;;;;5028484;28;20135;-33
2022/04/18 07:09:51;;;;;;;19.83;10.80;;;9.20;99.90;;;;;;5044401;28;20436;-33
2022/04/18 07:12:22;;;;;;;15.27;10.30;;;9.30;99.90;;;;;;5043659;28;20040;-32
2022/04/18 07:14:48;;;;;;;16.83;9.63;;;9.40;99.90;;;;;;5060356;28;20056;-31
2022/04/18 07:17:14;;;;;;;13.53;9.50;;;9.50;99.90;;;;;;5046712;28;20078;-33
2022/04/18 07:19:39;;;;;;;13.47;9.37;;;9.60;99.90;;;;;;5063175;28;20130;-32
2022/04/18 07:22:06;;;;;;;12.77;9.13;;;9.60;99.90;;;;;;5061679;28;20044;-33
2022/04/18 07:24:32;;;;;;;13.07;9.43;;;9.70;99.90;;;;;;5053633;28;20041;-32
2022/04/18 07:27:01;;;;;;;12.47;9.13;;;9.80;99.90;;;;;;5028227;28;20056;-32
2022/04/18 07:29:30;;;;;;;13.60;9.57;;;9.90;99.90;;;;;;5041552;28;20132;-34
2022/04/18 07:31:57;;;;;;;16.80;9.80;;;9.90;99.90;;;;;;5042182;28;20047;-34
2022/04/18 07:34:23;;;;;;;14.17;9.37;;;10.00;99.90;;;;;;5042225;28;20052;-33
2022/04/18 07:36:48;;;;;;;13.50;8.83;;;10.10;99.90;;;;;;5034608;28;20504;-34
2022/04/18 07:39:14;;;;;;;11.23;8.60;;;10.20;99.90;;;;;;5048825;28;20039;-31
2022/04/18 07:41:40;;;;;;;11.80;8.03;;;10.20;99.90;;;;;;5047237;28;20052;-31
2022/04/18 07:44:05;;;;;;;13.80;9.43;;;10.30;99.90;;;;;;5045687;28;20049;-35
2022/04/18 07:46:32;;;;;;;11.73;9.00;;;10.40;99.90;;;;;;5035475;28;20411;-35
2022/04/18 07:48:59;;;;;;;12.93;8.30;;;10.40;99.90;;;;;;5039732;28;20280;-33
2022/04/18 07:51:39;;;;;;;11.70;8.20;;;10.40;99.90;;;;;;5037861;28;20057;-34
2022/04/18 07:54:12;;;;;;;17.70;9.20;;;10.50;99.90;;;;;;5038138;28;20111;-32
2022/04/18 07:56:38;;;;;;;11.95;8.70;;;10.60;99.90;;;;;;5028854;28;20049;-35
2022/04/18 07:59:05;;;;;;;12.33;8.43;;;10.70;99.90;;;;;;5039458;28;20275;-31
2022/04/18 08:01:32;;;;;;;12.77;8.20;;;10.70;99.90;;;;;;5044167;28;20071;-31
2022/04/18 08:04:00;;;;;;;14.47;9.03;;;10.80;99.90;;;;;;5042273;28;20053;-32
2022/04/18 08:06:26;;;;;;;11.13;7.73;;;10.90;99.90;;;;;;5029497;28;20466;-35
2022/04/18 08:08:52;;;;;;;10.30;7.85;;;11.00;99.90;;;;;;5038389;28;20048;-34
2022/04/18 08:11:18;;;;;;;12.30;7.90;;;11.10;99.90;;;;;;5041125;28;20037;-33
2022/04/18 08:13:45;;;;;;;12.52;8.23;;;11.10;99.90;;;;;;5043084;28;20091;-36
2022/04/18 08:16:12;;;;;;;11.82;8.13;;;11.20;99.90;;;;;;5035931;28;20037;-32
2022/04/18 08:18:39;;;;;;;12.27;8.13;;;11.30;99.90;;;;;;5034819;28;20037;-32
2022/04/18 08:21:06;;;;;;;11.70;7.80;;;11.30;99.90;;;;;;5051275;28;20557;-34
2022/04/18 08:23:32;;;;;;;10.07;7.65;;;11.40;99.90;;;;;;5041728;28;20681;-32
2022/04/18 08:25:59;;;;;;;11.35;7.78;;;11.50;99.90;;;;;;5043944;28;20041;-35
2022/04/18 08:28:26;;;;;;;13.40;7.88;;;11.50;99.90;;;;;;5028068;28;20443;-34
2022/04/18 08:30:52;;;;;;;13.35;8.68;;;11.60;99.90;;;;;;5045203;28;20060;-35
2022/04/18 08:33:18;;;;;;;15.57;8.35;;;11.60;99.90;;;;;;5044663;28;20716;-34
2022/04/18 08:35:44;;;;;;;12.32;8.20;;;11.70;99.90;;;;;;5046236;28;20089;-35
2022/04/18 08:38:09;;;;;;;14.38;7.90;;;11.80;99.90;;;;;;5030840;28;20046;-32
2022/04/18 08:40:36;;;;;;;11.73;8.70;;;11.80;99.90;;;;;;5045946;28;20049;-33
2022/04/18 08:43:03;;;;;;;12.60;7.97;;;11.90;99.90;;;;;;5043730;28;20045;-34
2022/04/18 08:45:29;;;;;;;12.95;7.90;;;12.00;99.90;;;;;;5043748;28;20052;-33
2022/04/18 08:53:28;;;;;;;13.43;7.97;;;12.20;99.90;;;;;;5043952;28;20424;-33
2022/04/18 08:55:55;;;;;;;13.52;8.25;;;12.40;99.90;;;;;;5046147;28;20048;-33
2022/04/18 08:58:23;;;;;;;13.40;7.82;;;12.50;99.90;;;;;;5031185;28;20361;-34
2022/04/18 09:00:50;;;;;;;12.45;7.80;;;12.60;99.90;;;;;;5049484;28;20037;-35
2022/04/18 09:03:16;;;;;;;9.80;7.50;;;12.70;99.90;;;;;;5046169;28;20492;-35
2022/04/18 09:05:42;;;;;;;10.65;7.63;;;12.80;99.90;;;;;;5045997;28;20041;-32
2022/04/18 09:08:09;;;;;;;12.82;7.47;;;12.90;99.90;;;;;;5028473;28;20443;-35
2022/04/18 09:10:36;;;;;;;11.55;7.60;;;13.00;99.90;;;;;;5045267;28;20045;-34
2022/04/18 09:13:06;;;;;;;11.57;7.43;;;13.10;99.90;;;;;;5041623;28;20048;-35
2022/04/18 09:15:51;;;;;;;9.85;6.90;;;13.20;99.90;;;;;;5051888;28;20182;-33
2022/04/18 09:18:19;;;;;;;11.02;7.22;;;13.20;99.90;;;;;;5029084;28;20079;-35
2022/04/18 09:20:48;;;;;;;13.10;7.10;;;13.30;99.90;;;;;;5042612;28;20052;-34
2022/04/18 09:23:29;;;;;;;12.93;7.57;;;13.40;99.90;;;;;;5044612;28;20518;-35
2022/04/18 09:26:01;;;;;;;11.05;6.78;;;13.50;99.90;;;;;;5045336;28;20055;-35
2022/04/18 09:28:30;;;;;;;13.50;7.15;;;13.60;99.90;;;;;;5029191;28;20040;-37
2022/04/18 09:31:10;;;;;;;10.40;6.57;;;13.70;99.90;;;;;;5045107;28;20519;-34
2022/04/18 09:33:41;;;;;;;11.57;7.05;;;13.80;99.90;;;;;;5042819;28;20052;-35
2022/04/18 09:36:19;;;;;;;11.98;7.18;;;13.80;99.90;;;;;;5039019;28;20207;-36
2022/04/18 09:38:50;;;;;;;10.45;6.53;;;13.90;99.90;;;;;;5040516;28;20045;-33
2022/04/18 09:41:24;;;;;;;12.27;7.55;;;14.00;99.90;;;;;;5045702;28;20055;-32
2022/04/18 09:43:52;;;;;;;9.10;6.60;;;14.20;99.90;;;;;;5043852;28;20071;-33
2022/04/18 09:46:19;;;;;;;10.15;6.40;;;14.20;99.90;;;;;;5034102;28;20492;-34
2022/04/18 09:48:46;;;;;;;9.90;6.70;;;14.40;99.90;;;;;;5038441;28;20041;-34
2022/04/18 09:51:13;;;;;;;9.23;6.57;;;14.40;99.90;;;;;;5043807;28;20082;-33
2022/04/18 09:53:41;;;;;;;9.02;6.57;;;14.50;99.90;;;;;;5042813;28;20541;-34
2022/04/18 09:56:12;;;;;;;8.10;5.85;;;14.60;99.90;;;;;;5039494;28;20146;-36
2022/04/18 09:58:38;;;;;;;9.02;6.00;;;14.60;99.90;;;;;;5036844;28;20484;-36
2022/04/18 10:01:05;;;;;;;9.57;6.80;;;14.80;99.90;;;;;;5049405;28;20047;-35
2022/04/18 10:03:32;;;;;;;9.52;6.38;;;14.80;99.90;;;;;;5045650;28;20564;-35
2022/04/18 10:05:59;;;;;;;9.73;6.25;;;15.00;99.90;;;;;;5045207;28;20132;-35
2022/04/18 10:08:27;;;;;;;9.00;6.10;;;15.00;99.90;;;;;;5028344;28;20048;-32
2022/04/18 10:10:53;;;;;;;7.93;5.70;;;15.10;99.80;;;;;;5042738;28;20095;-35
2022/04/18 10:13:20;;;;;;;10.32;5.88;;;15.10;99.20;;;;;;5038881;28;20507;-35
2022/04/18 10:15:48;;;;;;;7.45;5.53;;;15.20;98.80;;;;;;5039313;28;20049;-35
2022/04/18 10:18:15;;;;;;;9.60;5.70;;;15.30;99.20;;;;;;5040363;28;20724;-35
2022/04/18 10:21:00;;;;;;;9.45;4.80;;;15.40;98.40;;;;;;5046531;28;20040;-35
2022/04/18 10:24:03;;;;;;;6.45;4.85;;;15.50;99.00;;;;;;5043197;28;20064;-34
2022/04/18 10:27:03;;;;;;;7.75;4.72;;;15.60;96.00;;;;;;5031595;28;20475;-32
2022/04/18 10:29:38;;;;;;;6.68;5.00;;;15.70;95.60;;;;;;5043047;28;20447;-32
2022/04/18 10:32:07;;;;;;;6.90;4.38;;;15.80;95.30;;;;;;5043347;28;20049;-38
2022/04/18 10:34:34;;;;;;;6.97;5.15;;;15.90;95.90;;;;;;5044269;28;20052;-35
2022/04/18 10:37:02;;;;;;;8.15;5.00;;;15.90;94.70;;;;;;5030544;28;20049;-33
2022/04/18 10:39:36;;;;;;;6.47;4.47;;;16.00;95.70;;;;;;5046163;28;20166;-35
2022/04/18 10:42:19;;;;;;;7.97;5.07;;;16.20;95.00;;;;;;5044154;28;20052;-36
2022/04/18 10:45:05;;;;;;;8.10;4.90;;;16.20;94.00;;;;;;5043218;28;20095;-32
2022/04/18 10:48:06;;;;;;;7.75;4.93;;;16.30;92.20;;;;;;5027296;28;20415;-34
2022/04/18 10:50:32;;;;;;;7.10;4.47;;;16.50;91.20;;;;;;5031366;28;20061;-35
2022/04/18 10:53:34;;;;;;;4.90;3.80;;;16.50;91.40;;;;;;5043105;28;20044;-36
2022/04/18 10:56:00;;;;;;;8.07;4.07;;;16.60;86.20;;;;;;5041793;28;20052;-35
2022/04/18 10:58:31;;;;;;;4.70;3.00;;;16.60;86.30;;;;;;5026488;28;20045;-32
2022/04/18 11:00:58;;;;;;;3.72;2.63;;;16.70;84.30;;;;;;5045450;28;20049;-35
2022/04/18 11:03:46;;;;;;;4.90;3.50;;;16.70;83.10;;;;;;5045336;28;20045;-35
2022/04/18 11:06:18;;;;;;;6.57;3.50;;;16.80;78.50;;;;;;5034124;28;20053;-34
2022/04/18 11:09:08;;;;;;;3.22;2.75;;;16.90;84.10;;;;;;5038471;28;20504;-36
2022/04/18 11:11:40;;;;;;;4.30;2.60;;;17.00;83.30;;;;;;5044207;28;20048;-35
2022/04/18 11:14:24;;;;;;;5.28;3.22;;;17.10;85.30;;;;;;5042841;28;20044;-34
2022/04/18 11:17:01;;;;;;;4.55;3.00;;;17.20;83.80;;;;;;5028721;28;20411;-36
2022/04/18 11:19:46;;;;;;;5.55;2.60;;;17.30;78.80;;;;;;5042534;28;20141;-36
2022/04/18 11:22:20;;;;;;;4.00;2.78;;;17.30;73.80;;;;;;5043645;28;20044;-34
2022/04/18 11:24:49;;;;;;;7.05;5.43;;;17.40;75.40;;;;;;5042983;28;20114;-34
2022/04/18 11:27:23;;;;;;;4.78;4.15;;;17.50;77.00;;;;;;5027788;28;20037;-34
2022/04/18 11:30:07;;;;;;;8.23;5.80;;;17.60;76.30;;;;;;5043248;28;20037;-35
2022/04/18 11:32:42;;;;;;;32.13;24.55;;;17.60;71.80;;;;;;5042611;28;20543;-32
2022/04/18 11:35:09;;;;;;;6.32;4.50;;;17.70;73.00;;;;;;5043588;28;20045;-31
2022/04/18 11:37:39;;;;;;;5.00;3.20;;;17.80;72.10;;;;;;5028977;28;20393;-35
2022/04/18 11:40:10;;;;;;;11.75;6.72;;;17.80;69.20;;;;;;5042211;28;20053;-36
2022/04/18 11:42:38;;;;;;;14.32;10.55;;;17.90;70.10;;;;;;5042982;28;20049;-34
2022/04/18 11:45:09;;;;;;;9.20;6.28;;;18.00;70.30;;;;;;5042970;28;20585;-35
2022/04/18 11:47:36;;;;;;;3.88;3.00;;;18.20;67.10;;;;;;5027896;28;20051;-34
2022/04/18 11:50:04;;;;;;;3.65;2.97;;;18.20;66.90;;;;;;5047022;28;20102;-32
2022/04/18 11:52:35;;;;;;;12.02;8.50;;;18.30;66.20;;;;;;5046228;28;20047;-32
2022/04/18 11:55:13;;;;;;;46.08;34.55;;;18.40;69.20;;;;;;5047184;28;20041;-32
2022/04/18 11:57:44;;;;;;;9.68;6.82;;;18.50;67.10;;;;;;5031489;28;20037;-33
2022/04/18 12:08:49;;;;;;;15.10;11.77;;;18.80;67.60;;;;;;5041611;28;20074;-35
2022/04/18 12:11:16;;;;;;;8.85;6.40;;;18.80;65.80;;;;;;5046268;28;20551;-33
2022/04/18 12:13:43;;;;;;;18.95;15.48;;;18.80;65.90;;;;;;5045998;28;20128;-36
2022/04/18 12:16:09;;;;;;;28.40;18.55;;;18.90;65.00;;;;;;5046707;28;20123;-42
2022/04/18 12:18:35;;;;;;;8.90;6.57;;;19.10;99.90;;;;;;5051241;28;20076;-41
2022/04/18 12:21:01;;;;;;;11.65;8.02;;;19.10;77.70;;;;;;5059979;28;20076;-42
2022/04/18 12:23:27;;;;;;;4.72;3.45;;;19.20;64.40;;;;;;5063099;28;20036;-41
2022/04/18 12:25:55;;;;;;;6.65;4.47;;;19.20;60.20;;;;;;5061528;28;20131;-42
2022/04/18 12:28:26;;;;;;;5.68;4.35;;;19.20;58.70;;;;;;5045517;28;20120;-41
2022/04/18 12:30:53;;;;;;;18.17;15.23;;;19.30;60.50;;;;;;5063820;28;20044;-42
2022/04/18 12:33:24;;;;;;;6.15;4.05;;;19.30;63.10;;;;;;5045729;28;20036;-42
2022/04/18 12:35:55;;;;;;;6.20;3.70;;;19.30;58.40;;;;;;5058869;28;20040;-41
2022/04/18 12:38:30;;;;;;;11.93;8.40;;;19.30;55.60;;;;;;5047635;28;20048;-42
2022/04/18 12:40:58;;;;;;;8.85;5.97;;;19.30;56.50;;;;;;5062051;28;20318;-41
2022/04/18 12:43:34;;;;;;;5.03;3.30;;;19.40;58.00;;;;;;5064397;28;20103;-42
2022/04/18 12:46:01;;;;;;;13.43;9.73;;;19.50;57.70;;;;;;5064916;28;20044;-41
2022/04/18 12:48:29;;;;;;;9.32;6.47;;;19.60;57.20;;;;;;5044702;28;20119;-41
2022/04/18 12:50:57;;;;;;;7.47;3.28;;;19.70;58.80;;;;;;5063022;28;20525;-42
2022/04/18 12:53:48;;;;;;;6.75;4.15;;;19.80;58.70;;;;;;5045294;28;20415;-44
2022/04/18 12:56:20;;;;;;;4.75;3.28;;;19.90;56.20;;;;;;5045231;28;20056;-44
2022/04/18 12:58:47;;;;;;;3.45;2.63;;;19.90;56.60;;;;;;5048074;28;20454;-44
2022/04/18 13:01:32;;;;;;;5.10;2.88;;;19.90;55.60;;;;;;5047634;28;20602;-45
2022/04/18 13:03:59;;;;;;;4.18;2.58;;;20.00;56.10;;;;;;5057961;28;20040;-45
2022/04/18 13:06:26;;;;;;;4.25;2.67;;;20.00;56.20;;;;;;5038765;28;20037;-44
2022/04/18 13:09:08;;;;;;;3.88;2.53;;;20.10;56.80;;;;;;5050688;28;20459;-44